Fort Lawn, South Carolina
Current Conditions -  °F | °C
As of 4:35 AM on Monday 24 Nov 2014 (Local Time) from KLKR Reporting Station
Broken Clouds Broken Clouds  
Wind Chill: 61°   Ceiling: 2900
Heat Index: 61°   Visibility: 10mi
Dew Point: 61°   Wind: 10mph
Humidity: 100%   Direction: 220°SW
Pressure: 29.79"   Gusts: NA
Location:  34.7°N, 80.89°W
Report Text: KLKR 240935Z AUTO 22009KT 10SM BKN029 16/16 A2979 RMK AO2
Loading
Personal Weather Stations






























Interactive Weather Map New forecast layout! Learn more

10-Day Weather Forecast

Advertisements
Track Severe Weather on mobile